createdAt,value
2023-04-10T00:00:08.705Z,95634.84
2023-04-10T00:02:56.639Z,95629.00
2023-04-10T00:05:24.093Z,95628.41
2023-04-10T00:07:51.829Z,95629.84
2023-04-10T00:10:19.425Z,95607.03
2023-04-10T00:12:47.274Z,95623.97
2023-04-10T00:15:14.589Z,95622.72
2023-04-10T00:17:42.266Z,95618.84
2023-04-10T00:20:10.007Z,95622.72
2023-04-10T00:22:37.493Z,95608.25
2023-04-10T00:25:06.728Z,95610.66
2023-04-10T00:27:34.197Z,95617.59
2023-04-10T00:30:02.800Z,95616.41
2023-04-10T00:32:30.901Z,95602.97
2023-04-10T00:34:58.149Z,95607.53
2023-04-10T00:37:26.452Z,95606.34
2023-04-10T00:39:53.740Z,95604.81
2023-04-10T00:42:21.273Z,95606.63
2023-04-10T00:44:48.474Z,95603.63
2023-04-10T00:47:17.148Z,95601.81
2023-04-10T00:49:45.024Z,95598.34
2023-04-10T00:52:12.763Z,95595.28
2023-04-10T00:54:40.927Z,95604.81
2023-04-10T00:57:08.592Z,95602.16
2023-04-10T00:59:36.354Z,95606.63
2023-04-10T01:02:04.633Z,95601.53
2023-04-10T01:04:33.507Z,95600.69
2023-04-10T01:07:12.576Z,95603.72
2023-04-10T01:09:58.162Z,95607.44
2023-04-10T01:12:51.971Z,95612.03
2023-04-10T01:15:22.690Z,95586.13
2023-04-10T01:18:09.400Z,95606.31
2023-04-10T01:20:39.893Z,95601.16
2023-04-10T01:23:14.269Z,95590.38
2023-04-10T01:25:45.042Z,95604.31
2023-04-10T01:28:22.059Z,95608.41
2023-04-10T01:30:57.569Z,95611.16
2023-04-10T01:33:34.037Z,95613.22
2023-04-10T01:36:03.274Z,95611.31
2023-04-10T01:38:31.789Z,95610.97
2023-04-10T01:41:01.428Z,95606.44
2023-04-10T01:43:33.748Z,95609.09
2023-04-10T01:46:03.489Z,95600.47
2023-04-10T01:48:31.383Z,95604.94
2023-04-10T01:51:01.857Z,95606.13
2023-04-10T01:53:31.886Z,95595.94
2023-04-10T01:56:00.122Z,95598.56
2023-04-10T01:58:28.354Z,95601.25
2023-04-10T02:00:57.352Z,95599.63
2023-04-10T02:03:25.173Z,95611.59
2023-04-10T02:05:57.128Z,95608.34
2023-04-10T02:08:34.832Z,95603.81
2023-04-10T02:11:32.089Z,95605.19
2023-04-10T02:14:08.152Z,95599.88
2023-04-10T02:16:38.448Z,95605.03
2023-04-10T02:19:06.998Z,95606.03
2023-04-10T02:21:35.268Z,95598.31
2023-04-10T02:24:02.959Z,95614.25
2023-04-10T02:26:30.095Z,95597.97
2023-04-10T02:28:57.763Z,95611.00
2023-04-10T02:31:24.989Z,95613.84
2023-04-10T02:33:52.797Z,95616.66
2023-04-10T02:36:20.206Z,95608.00
2023-04-10T02:38:47.777Z,95610.38
2023-04-10T02:41:15.245Z,95612.84
2023-04-10T02:43:42.953Z,95608.00
2023-04-10T02:46:10.207Z,95612.94
2023-04-10T02:48:40.210Z,95612.03
2023-04-10T02:51:07.837Z,95607.06
2023-04-10T02:53:36.009Z,95612.25
2023-04-10T02:56:03.727Z,95598.69
2023-04-10T02:58:31.785Z,95609.44
2023-04-10T03:01:00.851Z,95600.78
2023-04-10T03:03:40.751Z,95601.97
2023-04-10T03:06:09.707Z,95593.72
2023-04-10T03:08:38.279Z,95612.94
2023-04-10T03:11:07.769Z,95603.03
2023-04-10T03:13:35.258Z,95611.97
2023-04-10T03:16:02.553Z,95599.69
2023-04-10T03:18:32.152Z,95604.00
2023-04-10T03:20:59.400Z,95606.88
2023-04-10T03:23:26.920Z,95614.56
2023-04-10T03:25:55.150Z,95608.47
2023-04-10T03:28:26.498Z,95611.38
2023-04-10T03:30:53.875Z,95603.63
2023-04-10T03:33:21.398Z,95600.22
2023-04-10T03:35:48.773Z,95606.59
2023-04-10T03:38:16.359Z,95603.03
2023-04-10T03:40:43.601Z,95599.19
2023-04-10T03:43:11.624Z,95602.81
2023-04-10T03:45:39.009Z,95611.84
2023-04-10T03:48:07.092Z,95593.41
2023-04-10T03:50:52.263Z,95602.66
2023-04-10T03:53:19.822Z,95588.97
2023-04-10T03:55:47.193Z,95603.47
2023-04-10T03:58:14.717Z,95595.78
2023-04-10T04:00:42.107Z,95594.75
2023-04-10T04:03:27.083Z,95588.84
2023-04-10T04:06:07.468Z,95581.44
2023-04-10T04:08:39.632Z,95588.50
2023-04-10T04:11:18.983Z,95593.19
2023-04-10T04:13:57.515Z,95596.81
2023-04-10T04:16:43.570Z,95604.72
2023-04-10T04:19:31.992Z,95605.66
2023-04-10T04:22:28.500Z,95603.00
2023-04-10T04:25:21.994Z,95598.69
2023-04-10T04:28:07.890Z,95603.31
2023-04-10T04:30:53.976Z,95609.22
2023-04-10T04:33:38.822Z,95610.53
2023-04-10T04:36:27.996Z,95612.50
2023-04-10T04:39:05.062Z,95604.38
2023-04-10T04:41:43.773Z,95621.09
2023-04-10T04:44:29.469Z,95613.41
2023-04-10T04:47:11.833Z,95616.91
2023-04-10T04:49:57.141Z,95610.72
2023-04-10T04:52:45.034Z,95620.00
2023-04-10T04:55:35.776Z,95615.06
2023-04-10T04:58:25.007Z,95605.88
2023-04-10T05:01:18.517Z,95629.31
2023-04-10T05:04:10.972Z,95622.00
2023-04-10T05:07:04.632Z,95613.72
2023-04-10T05:09:35.128Z,95622.47
2023-04-10T05:12:14.231Z,95621.50
2023-04-10T05:14:45.435Z,95625.56
2023-04-10T05:17:31.186Z,95629.97
2023-04-10T05:20:37.415Z,95623.53
2023-04-10T05:23:04.808Z,95625.03
2023-04-10T05:26:07.661Z,95635.81
2023-04-10T05:28:46.916Z,95629.13
2023-04-10T05:31:33.814Z,95631.09
2023-04-10T05:34:21.461Z,95645.19
2023-04-10T05:37:11.747Z,95638.94
2023-04-10T05:40:00.104Z,95628.63
2023-04-10T05:42:27.681Z,95639.63
2023-04-10T05:45:15.362Z,95637.75
2023-04-10T05:48:06.294Z,95645.66
2023-04-10T05:51:08.713Z,95627.41
2023-04-10T05:53:57.188Z,95630.53
2023-04-10T05:56:31.331Z,95626.56
2023-04-10T05:59:08.902Z,95629.94
2023-04-10T06:01:54.332Z,95628.19
2023-04-10T06:04:35.983Z,95627.16
2023-04-10T06:07:07.186Z,95634.56
2023-04-10T06:09:34.767Z,95630.03
2023-04-10T06:12:04.320Z,95638.63
2023-04-10T06:14:32.091Z,95635.91
2023-04-10T06:16:59.789Z,95636.38
2023-04-10T06:19:27.322Z,95631.75
2023-04-10T06:21:54.750Z,95624.34
2023-04-10T06:24:23.752Z,95618.66
2023-04-10T06:26:51.676Z,95621.88
2023-04-10T06:29:19.575Z,95631.56
2023-04-10T06:31:47.781Z,95626.47
2023-04-10T06:34:17.860Z,95641.38
2023-04-10T06:36:57.261Z,95631.41
2023-04-10T06:39:25.558Z,95628.16
2023-04-10T06:41:53.243Z,95623.97
2023-04-10T06:44:45.703Z,95640.91
2023-04-10T06:47:18.126Z,95627.09
2023-04-10T06:49:47.197Z,95635.53
2023-04-10T06:52:14.488Z,95641.75
2023-04-10T06:54:44.242Z,95651.16
2023-04-10T06:57:11.674Z,95645.38
2023-04-10T06:59:39.114Z,95652.22
2023-04-10T07:02:06.980Z,95647.38
2023-04-10T07:04:34.605Z,95649.53
2023-04-10T07:07:03.297Z,95643.13
2023-04-10T07:09:33.614Z,95643.41
2023-04-10T07:12:01.067Z,95646.66
2023-04-10T07:14:28.936Z,95632.63
2023-04-10T07:16:57.590Z,95638.81
2023-04-10T07:19:26.015Z,95635.47
2023-04-10T07:21:53.368Z,95641.38
2023-04-10T07:24:22.114Z,95628.72
2023-04-10T07:26:50.259Z,95649.41
2023-04-10T07:29:18.054Z,95643.25
2023-04-10T07:31:45.433Z,95650.53
2023-04-10T07:34:12.968Z,95645.09
2023-04-10T07:36:40.590Z,95651.38
2023-04-10T07:39:08.361Z,95642.53
2023-04-10T07:41:36.174Z,95634.44
2023-04-10T07:44:03.773Z,95644.66
2023-04-10T07:46:31.005Z,95640.34
2023-04-10T07:48:58.685Z,95641.53
2023-04-10T07:51:26.236Z,95638.03
2023-04-10T07:53:58.658Z,95645.69
2023-04-10T07:56:26.110Z,95646.41
2023-04-10T07:58:53.896Z,95641.28
2023-04-10T08:01:21.792Z,95645.38
2023-04-10T08:03:49.528Z,95649.53
2023-04-10T08:06:16.855Z,95646.16
2023-04-10T08:08:44.441Z,95640.00
2023-04-10T08:11:38.323Z,95642.34
2023-04-10T08:14:11.435Z,95645.00
2023-04-10T08:16:39.817Z,95645.47
2023-04-10T08:19:07.467Z,95642.56
2023-04-10T08:21:35.398Z,95641.19
2023-04-10T08:24:05.171Z,95649.56
2023-04-10T08:26:35.364Z,95646.97
2023-04-10T08:29:02.982Z,95650.69
2023-04-10T08:31:30.527Z,95641.50
2023-04-10T08:33:58.994Z,95643.81
2023-04-10T08:36:30.182Z,95651.03
2023-04-10T08:38:57.876Z,95648.84
2023-04-10T08:41:28.568Z,95647.63
2023-04-10T08:43:58.371Z,95633.25
2023-04-10T08:46:28.809Z,95643.22
2023-04-10T08:49:05.822Z,95638.31
2023-04-10T08:51:49.344Z,95637.72
2023-04-10T08:54:26.295Z,95646.91
2023-04-10T08:56:56.099Z,95644.72
2023-04-10T08:59:23.814Z,95644.28
2023-04-10T09:01:51.451Z,95644.88
2023-04-10T09:04:19.659Z,95638.25
2023-04-10T09:06:48.266Z,95645.75
2023-04-10T09:09:16.496Z,95634.72
2023-04-10T09:12:10.536Z,95638.03
2023-04-10T09:14:38.671Z,95639.81
2023-04-10T09:17:19.021Z,95635.50
2023-04-10T09:19:57.134Z,95632.00
2023-04-10T09:22:35.575Z,95640.47
2023-04-10T09:25:04.984Z,95642.41
2023-04-10T09:27:39.495Z,95626.06
2023-04-10T09:30:10.218Z,95633.63
2023-04-10T09:32:40.035Z,95637.84
2023-04-10T09:35:13.754Z,95628.94
2023-04-10T09:37:44.258Z,95632.28
2023-04-10T09:40:27.472Z,95627.25
2023-04-10T09:42:57.398Z,95626.25
2023-04-10T09:45:25.063Z,95632.50
2023-04-10T09:48:03.498Z,95637.13
2023-04-10T09:50:46.499Z,95638.38
2023-04-10T09:53:21.021Z,95627.09
2023-04-10T09:55:53.326Z,95633.16
2023-04-10T09:58:22.849Z,95621.81
2023-04-10T10:00:56.334Z,95621.59
2023-04-10T10:03:28.737Z,95608.97
2023-04-10T10:05:57.744Z,95616.72
2023-04-10T10:08:26.376Z,95610.41
2023-04-10T10:10:59.950Z,95613.44
2023-04-10T10:13:35.468Z,95611.34
2023-04-10T10:16:30.142Z,95610.25
2023-04-10T10:19:27.508Z,95598.81
2023-04-10T10:21:56.354Z,95607.47
2023-04-10T10:24:26.484Z,95609.38
2023-04-10T10:26:56.062Z,95589.84
2023-04-10T10:29:24.457Z,95599.03
2023-04-10T10:31:53.336Z,95587.72
2023-04-10T10:34:21.978Z,95590.53
2023-04-10T10:36:50.632Z,95595.59
2023-04-10T10:39:53.356Z,95593.69
2023-04-10T10:42:35.436Z,95580.38
2023-04-10T10:45:16.987Z,95591.06
2023-04-10T10:47:55.217Z,95581.47
2023-04-10T10:50:24.266Z,95579.63
2023-04-10T10:52:54.167Z,95562.56
2023-04-10T10:55:24.495Z,95578.66
2023-04-10T10:57:54.002Z,95572.88
2023-04-10T11:00:23.238Z,95576.41
2023-04-10T11:03:09.091Z,95572.34
2023-04-10T11:05:59.995Z,95574.03
2023-04-10T11:08:33.834Z,95560.94
2023-04-10T11:11:08.288Z,95573.94
2023-04-10T11:13:38.026Z,95565.97
2023-04-10T11:16:10.585Z,95561.75
2023-04-10T11:18:56.123Z,95573.16
2023-04-10T11:21:29.906Z,95565.88
2023-04-10T11:23:57.454Z,95559.41
2023-04-10T11:26:42.921Z,95555.16
2023-04-10T11:29:16.431Z,95550.81
2023-04-10T11:32:04.513Z,95563.25
2023-04-10T11:34:33.466Z,95554.94
2023-04-10T11:37:03.316Z,95552.13
2023-04-10T11:39:31.656Z,95549.25
2023-04-10T11:41:59.292Z,95552.03
2023-04-10T11:44:26.845Z,95553.69
2023-04-10T11:46:54.658Z,95533.78
2023-04-10T11:49:31.465Z,95540.25
2023-04-10T11:51:59.242Z,95541.63
2023-04-10T11:54:28.727Z,95536.09
2023-04-10T11:57:02.673Z,95542.56
2023-04-10T11:59:31.786Z,95537.34
2023-04-10T12:02:11.876Z,95536.84
2023-04-10T12:04:40.505Z,95540.19
2023-04-10T12:07:08.795Z,95535.66
2023-04-10T12:09:36.882Z,95537.81
2023-04-10T12:12:08.527Z,95530.09
2023-04-10T12:14:41.881Z,95524.38
2023-04-10T12:17:10.853Z,95532.03
2023-04-10T12:19:39.265Z,95519.50
2023-04-10T12:22:07.072Z,95526.31
2023-04-10T12:24:50.907Z,95532.25
2023-04-10T12:27:28.269Z,95514.91
2023-04-10T12:30:00.274Z,95507.84
2023-04-10T12:32:27.996Z,95520.75
2023-04-10T12:34:58.374Z,95510.91
2023-04-10T12:37:46.466Z,95503.97
2023-04-10T12:40:14.642Z,95500.72
2023-04-10T12:42:44.717Z,95499.38
2023-04-10T12:45:14.229Z,95493.31
2023-04-10T12:47:54.781Z,95486.53
2023-04-10T12:50:22.724Z,95482.81
2023-04-10T12:53:06.535Z,95485.97
2023-04-10T12:55:34.383Z,95473.13
2023-04-10T12:58:18.254Z,95486.53
2023-04-10T13:00:47.120Z,95476.53
2023-04-10T13:03:14.771Z,95481.28
2023-04-10T13:05:42.602Z,95471.28
2023-04-10T13:08:09.767Z,95471.38
2023-04-10T13:10:38.466Z,95454.34
2023-04-10T13:13:07.330Z,95457.59
2023-04-10T13:15:35.202Z,95459.53
2023-04-10T13:18:05.240Z,95442.22
2023-04-10T13:20:41.050Z,95453.47
2023-04-10T13:23:09.055Z,95454.25
2023-04-10T13:25:43.219Z,95450.97
2023-04-10T13:28:11.650Z,95460.16
2023-04-10T13:30:41.962Z,95454.06
2023-04-10T13:33:09.813Z,95436.63
2023-04-10T13:35:37.819Z,95437.22
2023-04-10T13:38:05.174Z,95444.19
2023-04-10T13:40:33.569Z,95445.53
2023-04-10T13:43:00.983Z,95435.66
2023-04-10T13:45:28.500Z,95434.06
2023-04-10T13:47:55.920Z,95421.78
2023-04-10T13:50:23.552Z,95430.50
2023-04-10T13:52:52.294Z,95426.81
2023-04-10T13:55:21.804Z,95428.22
2023-04-10T13:57:49.043Z,95419.38
2023-04-10T14:00:16.758Z,95407.56
2023-04-10T14:02:44.291Z,95414.84
2023-04-10T14:05:12.011Z,95399.72
2023-04-10T14:07:39.300Z,95399.19
2023-04-10T14:10:07.624Z,95401.00
2023-04-10T14:12:36.001Z,95393.63
2023-04-10T14:15:05.572Z,95385.16
2023-04-10T14:17:32.951Z,95394.34
2023-04-10T14:20:00.642Z,95387.47
2023-04-10T14:22:30.408Z,95387.31
2023-04-10T14:25:09.473Z,95371.22
2023-04-10T14:27:40.083Z,95381.44
2023-04-10T14:30:08.531Z,95386.38
2023-04-10T14:32:35.913Z,95384.03
2023-04-10T14:35:03.624Z,95374.72
2023-04-10T14:37:31.210Z,95377.69
2023-04-10T14:39:58.796Z,95379.44
2023-04-10T14:42:27.078Z,95376.66
2023-04-10T14:44:54.678Z,95374.81
2023-04-10T14:47:22.887Z,95371.22
2023-04-10T14:49:50.678Z,95378.13
2023-04-10T14:52:18.971Z,95383.09
2023-04-10T14:54:46.437Z,95381.16
2023-04-10T14:57:15.282Z,95376.63
2023-04-10T14:59:42.939Z,95375.09
2023-04-10T15:02:10.434Z,95377.03
2023-04-10T15:04:38.093Z,95381.09
2023-04-10T15:07:05.490Z,95385.97
2023-04-10T15:09:32.948Z,95380.38
2023-04-10T15:12:00.318Z,95377.44
2023-04-10T15:14:27.859Z,95382.81
2023-04-10T15:16:55.279Z,95378.19
2023-04-10T15:19:22.793Z,95387.63
2023-04-10T15:21:50.111Z,95374.69
2023-04-10T15:24:17.979Z,95385.22
2023-04-10T15:26:46.175Z,95384.69
2023-04-10T15:29:14.403Z,95386.03
2023-04-10T15:31:41.645Z,95376.94
2023-04-10T15:34:11.962Z,95385.53
2023-04-10T15:36:39.313Z,95388.22
2023-04-10T15:39:06.789Z,95392.44
2023-04-10T15:41:34.246Z,95392.19
2023-04-10T15:44:01.974Z,95392.47
2023-04-10T15:46:32.750Z,95384.91
2023-04-10T15:49:01.091Z,95367.91
2023-04-10T15:51:28.362Z,95390.22
2023-04-10T15:53:56.048Z,95393.19
2023-04-10T15:56:23.424Z,95386.97
2023-04-10T15:58:52.019Z,95389.88
2023-04-10T16:01:19.633Z,95394.19
2023-04-10T16:03:49.370Z,95382.34
2023-04-10T16:06:16.818Z,95382.31
2023-04-10T16:08:44.693Z,95381.25
2023-04-10T16:11:12.137Z,95377.19
2023-04-10T16:13:42.927Z,95378.56
2023-04-10T16:16:16.415Z,95367.81
2023-04-10T16:18:47.627Z,95369.28
2023-04-10T16:21:15.156Z,95377.63
2023-04-10T16:23:42.987Z,95388.91
2023-04-10T16:26:10.244Z,95368.44
2023-04-10T16:28:38.061Z,95332.94
2023-04-10T16:31:05.948Z,95294.81
2023-04-10T16:33:34.009Z,95286.81
2023-04-10T16:36:04.790Z,95309.09
2023-04-10T16:38:34.764Z,95297.81
2023-04-10T16:41:03.441Z,95298.63
2023-04-10T16:43:31.419Z,95301.78
2023-04-10T16:45:59.915Z,95309.81
2023-04-10T16:48:27.884Z,95324.72
2023-04-10T16:50:55.743Z,95300.81
2023-04-10T16:53:23.570Z,95312.94
2023-04-10T16:55:59.291Z,95310.88
2023-04-10T16:58:28.367Z,95316.97
2023-04-10T17:00:56.392Z,95320.50
2023-04-10T17:03:24.275Z,95315.69
2023-04-10T17:05:51.717Z,95305.44
2023-04-10T17:08:19.715Z,95317.41
2023-04-10T17:10:47.134Z,95321.88
2023-04-10T17:13:15.068Z,95309.50
2023-04-10T17:15:42.452Z,95315.44
2023-04-10T17:18:11.459Z,95311.63
2023-04-10T17:20:38.825Z,95322.97
2023-04-10T17:23:07.858Z,95317.63
2023-04-10T17:25:39.519Z,95318.19
2023-04-10T17:28:08.062Z,95318.00
2023-04-10T17:30:35.535Z,95313.63
2023-04-10T17:33:03.190Z,95328.16
2023-04-10T17:35:30.716Z,95325.41
2023-04-10T17:37:58.565Z,95319.09
2023-04-10T17:40:26.051Z,95328.28
2023-04-10T17:42:54.002Z,95315.22
2023-04-10T17:45:21.240Z,95304.38
2023-04-10T17:47:49.187Z,95315.34
2023-04-10T17:50:16.784Z,95318.41
2023-04-10T17:52:44.695Z,95319.81
2023-04-10T17:55:12.080Z,95331.94
2023-04-10T17:57:39.988Z,95330.06
2023-04-10T18:00:09.015Z,95326.72
2023-04-10T18:02:37.385Z,95345.44
2023-04-10T18:05:06.673Z,95342.25
2023-04-10T18:07:34.450Z,95355.59
2023-04-10T18:10:01.889Z,95370.53
2023-04-10T18:12:29.807Z,95364.44
2023-04-10T18:14:57.272Z,95366.22
2023-04-10T18:17:24.877Z,95383.16
2023-04-10T18:19:52.522Z,95376.69
2023-04-10T18:22:20.238Z,95382.03
2023-04-10T18:24:51.244Z,95391.69
2023-04-10T18:27:19.232Z,95375.75
2023-04-10T18:29:46.798Z,95397.09
2023-04-10T18:32:14.700Z,95393.66
2023-04-10T18:34:42.244Z,95392.63
2023-04-10T18:37:10.248Z,95402.06
2023-04-10T18:39:40.017Z,95393.78
2023-04-10T18:42:10.932Z,95393.69
2023-04-10T18:44:38.309Z,95383.84
2023-04-10T18:47:06.183Z,95379.69
2023-04-10T18:49:33.912Z,95368.69
2023-04-10T18:52:01.844Z,95377.25
2023-04-10T18:54:30.070Z,95366.53
2023-04-10T18:56:57.871Z,95363.63
2023-04-10T18:59:26.825Z,95345.91
2023-04-10T19:01:57.797Z,95348.66
2023-04-10T19:04:26.649Z,95352.38
2023-04-10T19:06:54.434Z,95360.66
2023-04-10T19:09:21.742Z,95351.00
2023-04-10T19:11:49.596Z,95345.78
2023-04-10T19:14:16.926Z,95343.59
2023-04-10T19:16:44.587Z,95333.16
2023-04-10T19:19:12.064Z,95344.69
2023-04-10T19:21:39.645Z,95346.47
2023-04-10T19:24:09.271Z,95337.56
2023-04-10T19:26:42.432Z,95339.16
2023-04-10T19:29:09.960Z,95344.50
2023-04-10T19:31:37.912Z,95329.75
2023-04-10T19:34:09.372Z,95338.66
2023-04-10T19:36:37.917Z,95329.91
2023-04-10T19:39:08.924Z,95322.78
2023-04-10T19:41:42.325Z,95320.28
2023-04-10T19:44:09.943Z,95323.69
2023-04-10T19:46:37.903Z,95322.00
2023-04-10T19:49:05.511Z,95311.50
2023-04-10T19:51:33.355Z,95307.94
2023-04-10T19:54:00.948Z,95311.00
2023-04-10T19:56:28.852Z,95311.75
2023-04-10T19:58:56.410Z,95292.56
2023-04-10T20:01:24.579Z,95309.56
2023-04-10T20:03:54.884Z,95312.06
2023-04-10T20:06:22.629Z,95310.69
2023-04-10T20:08:49.849Z,95309.44
2023-04-10T20:11:17.490Z,95306.13
2023-04-10T20:13:47.883Z,95299.31
2023-04-10T20:16:16.142Z,95301.72
2023-04-10T20:18:43.402Z,95295.16
2023-04-10T20:21:11.127Z,95295.75
2023-04-10T20:23:38.480Z,95289.06
2023-04-10T20:26:06.499Z,95291.16
2023-04-10T20:28:33.752Z,95296.72
2023-04-10T20:31:01.599Z,95287.47
2023-04-10T20:33:29.021Z,95290.13
2023-04-10T20:35:56.714Z,95291.50
2023-04-10T20:38:23.951Z,95279.53
2023-04-10T20:40:51.658Z,95275.91
2023-04-10T20:43:19.195Z,95273.59
2023-04-10T20:45:46.852Z,95270.66
2023-04-10T20:48:14.359Z,95267.97
2023-04-10T20:50:43.880Z,95264.63
2023-04-10T20:53:12.901Z,95259.41
2023-04-10T20:55:41.048Z,95254.56
2023-04-10T20:58:08.258Z,95253.66
2023-04-10T21:00:35.910Z,95249.78
2023-04-10T21:03:03.436Z,95246.13
2023-04-10T21:05:31.300Z,95247.53
2023-04-10T21:07:58.625Z,95246.31
2023-04-10T21:10:26.232Z,95254.22
2023-04-10T21:12:53.410Z,95246.03
2023-04-10T21:15:22.538Z,95245.25
2023-04-10T21:17:50.016Z,95242.13
2023-04-10T21:20:17.610Z,95249.66
2023-04-10T21:22:44.871Z,95243.56
2023-04-10T21:25:12.524Z,95240.56
2023-04-10T21:27:39.712Z,95229.34
2023-04-10T21:30:08.194Z,95232.47
2023-04-10T21:32:35.504Z,95234.34
2023-04-10T21:35:03.087Z,95227.84
2023-04-10T21:37:32.985Z,95222.44
2023-04-10T21:40:00.745Z,95219.78
2023-04-10T21:42:28.075Z,95223.00
2023-04-10T21:44:55.721Z,95219.19
2023-04-10T21:47:22.897Z,95227.75
2023-04-10T21:49:51.233Z,95222.44
2023-04-10T21:52:18.472Z,95213.50
2023-04-10T21:54:45.966Z,95211.78
2023-04-10T21:57:13.167Z,95216.41
2023-04-10T21:59:40.696Z,95210.84
2023-04-10T22:02:08.101Z,95211.75
2023-04-10T22:04:41.504Z,95212.56
2023-04-10T22:07:17.475Z,95208.16
2023-04-10T22:09:44.991Z,95205.25
2023-04-10T22:12:12.152Z,95203.72
2023-04-10T22:14:39.711Z,95191.66
2023-04-10T22:17:07.139Z,95197.66
2023-04-10T22:19:34.792Z,95191.84
2023-04-10T22:22:02.151Z,95196.38
2023-04-10T22:24:30.894Z,95194.66
2023-04-10T22:26:58.126Z,95200.69
2023-04-10T22:29:25.663Z,95197.69
2023-04-10T22:31:52.958Z,95194.00
2023-04-10T22:34:20.568Z,95195.16
2023-04-10T22:36:47.740Z,95187.19
2023-04-10T22:39:15.409Z,95182.00
2023-04-10T22:41:43.149Z,95179.56
2023-04-10T22:44:10.923Z,95182.69
2023-04-10T22:46:38.409Z,95186.38
2023-04-10T22:49:06.641Z,95186.25
2023-04-10T22:51:33.826Z,95180.38
2023-04-10T22:54:01.606Z,95176.44
2023-04-10T22:56:30.202Z,95184.63
2023-04-10T22:58:58.483Z,95176.53
2023-04-10T23:01:26.087Z,95178.16
2023-04-10T23:03:54.084Z,95168.22
2023-04-10T23:06:21.631Z,95163.56
2023-04-10T23:08:49.276Z,95170.59
2023-04-10T23:11:16.468Z,95162.84
2023-04-10T23:13:44.781Z,95163.69
2023-04-10T23:16:12.389Z,95177.19
2023-04-10T23:18:40.092Z,95162.72
2023-04-10T23:21:08.521Z,95160.50
2023-04-10T23:23:36.375Z,95155.09
2023-04-10T23:26:03.658Z,95141.91
2023-04-10T23:28:31.914Z,95140.94
2023-04-10T23:30:59.157Z,95134.63
2023-04-10T23:33:27.466Z,95136.69
2023-04-10T23:35:54.934Z,95124.00
2023-04-10T23:38:25.813Z,95133.84
2023-04-10T23:40:53.626Z,95123.31
2023-04-10T23:43:21.483Z,95126.19
2023-04-10T23:45:49.168Z,95132.66
2023-04-10T23:48:16.982Z,95122.47
2023-04-10T23:50:44.226Z,95126.06
2023-04-10T23:53:12.807Z,95119.38
2023-04-10T23:55:42.539Z,95126.66
2023-04-10T23:58:10.284Z,95128.38
